Time;durP1;ratioP1;P1;durP2;ratioP2;P2;SDS_P1;SDS_P2;PMS_P1;PMS_P2;Temp;Humidity;BMP_temperature;BMP_pressure;BME280_temperature;BME280_humidity;BME280_pressure;Samples;Min_cycle;Max_cycle;Signal;HPM_P1;HPM_P2
2022/05/13 00:02:10;;;;;;;14.10;5.28;;;12.90;84.00;;;;;;5094173;28;20047;-79
2022/05/13 00:04:38;;;;;;;16.60;5.95;;;12.90;83.90;;;;;;5094001;28;20043;-77
2022/05/13 00:07:04;;;;;;;19.00;6.55;;;12.90;83.80;;;;;;5094021;28;20128;-79
2022/05/13 00:12:15;;;;;;;;;;;12.90;83.60;;;;;;5094592;28;20055;-79
2022/05/13 00:14:43;;;;;;;19.80;5.00;;;12.80;84.50;;;;;;5093490;28;20348;-78
2022/05/13 00:17:08;;;;;;;15.98;5.38;;;12.90;83.70;;;;;;5093441;28;20044;-79
2022/05/13 00:19:34;;;;;;;19.88;5.45;;;12.90;83.60;;;;;;5077335;28;20044;-78
2022/05/13 00:22:00;;;;;;;16.27;5.65;;;12.90;83.80;;;;;;5093193;28;20032;-77
2022/05/13 00:24:26;;;;;;;19.45;6.28;;;12.90;83.90;;;;;;5076512;28;20047;-79
2022/05/13 00:26:52;;;;;;;18.58;5.82;;;12.90;83.80;;;;;;5076615;28;20404;-78
2022/05/13 00:29:17;;;;;;;16.05;5.85;;;12.90;83.70;;;;;;5076802;28;20040;-77
2022/05/13 00:31:43;;;;;;;13.57;4.82;;;12.90;83.90;;;;;;5077093;28;20051;-82
2022/05/13 00:34:09;;;;;;;21.13;5.22;;;12.80;84.00;;;;;;5093256;28;20442;-79
2022/05/13 00:36:35;;;;;;;21.90;5.72;;;12.90;84.00;;;;;;5076832;28;20130;-78
2022/05/13 00:39:03;;;;;;;20.92;5.15;;;12.80;84.10;;;;;;5093810;28;20067;-81
2022/05/13 00:41:29;;;;;;;19.85;5.93;;;12.80;84.40;;;;;;5093256;28;20043;-78
2022/05/13 00:43:56;;;;;;;19.30;5.68;;;12.80;84.10;;;;;;5076349;28;20044;-75
2022/05/13 00:46:24;;;;;;;16.15;5.13;;;12.80;84.20;;;;;;5093224;28;20082;-75
2022/05/13 00:48:51;;;;;;;15.98;5.05;;;12.80;84.50;;;;;;5093270;28;20081;-81
2022/05/13 00:51:29;;;;;;;17.20;5.55;;;12.70;84.40;;;;;;5092655;28;20076;-80
2022/05/13 00:53:56;;;;;;;25.88;6.25;;;12.70;85.30;;;;;;5075874;28;20040;-77
2022/05/13 00:56:22;;;;;;;22.17;5.82;;;12.70;85.30;;;;;;5075906;28;20044;-77
2022/05/13 00:58:53;;;;;;;23.63;5.97;;;12.70;85.30;;;;;;5059211;28;20476;-81
2022/05/13 01:01:19;;;;;;;23.52;6.00;;;12.70;85.60;;;;;;5075964;28;20042;-78
2022/05/13 01:03:48;;;;;;;16.60;5.80;;;12.70;85.10;;;;;;5076070;28;20179;-79
2022/05/13 01:06:19;;;;;;;21.77;6.85;;;12.60;85.30;;;;;;5093057;28;20059;-79
2022/05/13 01:08:47;;;;;;;18.35;5.75;;;12.60;85.20;;;;;;5076265;28;20128;-78
2022/05/13 01:11:17;;;;;;;26.13;8.00;;;12.70;85.70;;;;;;5092762;28;20050;-79
2022/05/13 01:13:46;;;;;;;24.10;6.57;;;12.60;85.90;;;;;;5092754;28;20036;-76
2022/05/13 01:16:12;;;;;;;21.33;6.75;;;12.60;86.00;;;;;;5092517;28;20048;-79
2022/05/13 01:18:40;;;;;;;19.88;5.78;;;12.70;86.00;;;;;;5092864;28;20042;-79
2022/05/13 01:21:08;;;;;;;17.73;5.90;;;12.80;85.60;;;;;;5092798;28;20044;-78
2022/05/13 01:23:40;;;;;;;20.23;5.22;;;12.80;85.60;;;;;;5092795;28;20032;-79
2022/05/13 01:26:10;;;;;;;21.75;6.47;;;12.70;85.90;;;;;;5093204;28;20046;-79
2022/05/13 01:28:37;;;;;;;16.70;6.70;;;12.70;86.80;;;;;;5091885;28;20040;-79
2022/05/13 01:31:10;;;;;;;20.85;5.97;;;12.60;86.80;;;;;;5092504;28;20043;-78
2022/05/13 01:33:36;;;;;;;15.60;6.53;;;12.70;86.30;;;;;;5092324;28;20043;-78
2022/05/13 01:36:04;;;;;;;22.10;7.15;;;12.70;86.10;;;;;;5092586;28;20032;-81
2022/05/13 01:38:35;;;;;;;29.67;8.15;;;12.70;86.10;;;;;;5075417;28;20045;-76
2022/05/13 01:41:02;;;;;;;24.98;6.88;;;12.70;86.10;;;;;;5075809;28;20085;-81
2022/05/13 01:43:28;;;;;;;27.83;8.18;;;12.70;86.50;;;;;;5075373;28;20040;-78
2022/05/13 01:45:55;;;;;;;26.10;7.90;;;12.70;87.00;;;;;;5092357;28;20047;-82
2022/05/13 01:48:21;;;;;;;30.42;8.20;;;12.70;86.50;;;;;;5075737;28;20040;-79
2022/05/13 01:50:47;;;;;;;23.77;7.30;;;12.60;87.20;;;;;;5092412;28;20040;-76
2022/05/13 01:53:13;;;;;;;34.42;9.10;;;12.70;86.60;;;;;;5092267;28;20040;-80
2022/05/13 01:55:42;;;;;;;21.50;7.00;;;12.70;86.50;;;;;;5092265;28;20040;-78
2022/05/13 01:58:13;;;;;;;25.50;7.53;;;12.70;86.90;;;;;;5092523;28;20403;-79
2022/05/13 02:00:39;;;;;;;27.08;8.57;;;12.60;86.60;;;;;;5092387;28;20036;-78
2022/05/13 02:05:49;;;;;;;;;;;12.70;86.80;;;;;;5092736;28;20062;-80
2022/05/13 02:08:16;;;;;;;23.05;6.90;;;12.70;86.70;;;;;;5092300;28;20348;-77
2022/05/13 02:10:42;;;;;;;22.13;6.75;;;12.70;86.40;;;;;;5092061;28;20073;-76
2022/05/13 02:13:08;;;;;;;24.42;7.07;;;12.70;86.30;;;;;;5075052;28;20054;-76
2022/05/13 02:15:34;;;;;;;24.67;7.35;;;12.80;86.30;;;;;;5091799;28;20135;-82
2022/05/13 02:17:59;;;;;;;18.70;5.63;;;12.80;86.50;;;;;;5092042;28;20046;-77
2022/05/13 02:20:25;;;;;;;30.73;7.63;;;12.80;86.50;;;;;;5092279;28;20099;-80
2022/05/13 02:22:51;;;;;;;25.98;7.78;;;12.80;86.50;;;;;;5092226;28;20085;-79
2022/05/13 02:25:18;;;;;;;24.88;6.15;;;12.80;86.90;;;;;;5058525;28;20075;-78
2022/05/13 02:27:44;;;;;;;23.48;6.30;;;12.70;87.20;;;;;;5092164;28;20380;-81
2022/05/13 02:30:10;;;;;;;22.77;6.57;;;12.70;86.60;;;;;;5092207;28;20050;-79
2022/05/13 02:32:36;;;;;;;18.98;6.40;;;12.70;86.40;;;;;;5075093;28;20036;-77
2022/05/13 02:35:02;;;;;;;18.80;6.78;;;12.80;86.10;;;;;;5091941;28;20040;-83
2022/05/13 02:37:28;;;;;;;24.65;6.65;;;12.80;86.20;;;;;;5091817;28;20043;-79
2022/05/13 02:39:54;;;;;;;20.40;4.82;;;12.80;86.10;;;;;;5093839;28;20044;-81
2022/05/13 02:42:19;;;;;;;17.65;6.07;;;12.90;85.70;;;;;;5095825;28;20385;-75
2022/05/13 02:44:45;;;;;;;30.83;6.90;;;12.80;85.60;;;;;;5078055;28;20048;-79
2022/05/13 02:47:11;;;;;;;21.02;5.65;;;12.80;85.40;;;;;;5061872;28;20047;-78
2022/05/13 02:49:37;;;;;;;18.00;5.78;;;12.80;85.20;;;;;;5078269;28;20498;-83
2022/05/13 02:52:03;;;;;;;18.83;5.88;;;12.80;84.80;;;;;;5095222;28;20044;-76
2022/05/13 02:54:28;;;;;;;17.83;5.35;;;12.80;84.60;;;;;;5095360;28;20040;-80
2022/05/13 02:56:54;;;;;;;20.27;5.72;;;12.80;84.70;;;;;;5095466;28;20036;-80
2022/05/13 02:59:20;;;;;;;14.40;4.97;;;12.80;84.40;;;;;;5095434;28;20036;-77
2022/05/13 03:01:45;;;;;;;18.63;5.38;;;12.80;84.00;;;;;;5078628;28;20105;-81
2022/05/13 03:04:11;;;;;;;14.15;4.97;;;12.80;84.10;;;;;;5078266;28;20472;-78
2022/05/13 03:06:37;;;;;;;16.42;5.53;;;12.70;83.90;;;;;;5095039;28;20039;-79
2022/05/13 03:09:03;;;;;;;22.13;5.57;;;12.80;83.70;;;;;;5094735;28;20090;-81
2022/05/13 03:11:29;;;;;;;25.13;6.00;;;12.70;83.70;;;;;;5094964;28;20040;-79
2022/05/13 03:13:55;;;;;;;21.60;5.68;;;12.70;83.80;;;;;;5078213;28;20127;-82
2022/05/13 03:16:23;;;;;;;20.67;5.25;;;12.70;83.70;;;;;;5094738;28;20549;-80
2022/05/13 03:18:52;;;;;;;16.77;5.10;;;12.70;83.60;;;;;;5095112;28;20434;-80
2022/05/13 03:21:19;;;;;;;15.93;5.15;;;12.70;83.50;;;;;;5095235;28;20369;-77
2022/05/13 03:23:45;;;;;;;15.35;5.32;;;12.70;83.50;;;;;;5094955;28;20047;-79
2022/05/13 03:26:14;;;;;;;22.08;6.93;;;12.70;83.30;;;;;;5094811;28;20485;-78
2022/05/13 03:28:40;;;;;;;13.00;4.43;;;12.70;83.20;;;;;;5094595;28;20051;-76
2022/05/13 03:31:05;;;;;;;23.02;4.93;;;12.70;83.00;;;;;;5077666;28;20048;-80
2022/05/13 03:33:32;;;;;;;18.35;6.25;;;12.70;83.20;;;;;;5094449;28;20070;-79
2022/05/13 03:35:58;;;;;;;14.88;5.13;;;12.80;82.80;;;;;;5094476;28;20127;-77
2022/05/13 03:38:24;;;;;;;13.60;5.15;;;12.80;82.50;;;;;;5094734;28;20126;-78
2022/05/13 03:40:49;;;;;;;13.07;4.68;;;12.80;82.40;;;;;;5077700;28;20123;-79
2022/05/13 03:43:16;;;;;;;14.45;4.65;;;12.80;82.10;;;;;;5077515;28;20047;-78
2022/05/13 03:45:42;;;;;;;11.13;4.43;;;12.70;82.20;;;;;;5094399;28;20181;-78
2022/05/13 03:48:09;;;;;;;11.30;4.22;;;12.70;82.20;;;;;;5094449;28;20051;-77
2022/05/13 03:50:37;;;;;;;12.35;3.75;;;12.80;81.70;;;;;;5093885;28;20044;-78
2022/05/13 03:53:03;;;;;;;13.43;4.15;;;12.80;80.90;;;;;;5077228;28;20040;-79
2022/05/13 03:55:30;;;;;;;10.18;4.30;;;12.90;80.30;;;;;;5077675;28;20377;-80
2022/05/13 03:57:56;;;;;;;9.30;3.63;;;12.90;80.30;;;;;;5077406;28;20036;-77
2022/05/13 04:00:22;;;;;;;13.18;4.03;;;12.80;80.00;;;;;;5094272;28;20085;-80
2022/05/13 04:02:48;;;;;;;14.20;3.65;;;12.80;79.70;;;;;;5093916;28;20123;-78
2022/05/13 04:10:43;;;;;;;10.23;3.22;;;12.80;78.60;;;;;;5094333;28;20048;-79
2022/05/13 04:16:08;;;;;;;7.78;2.50;;;12.90;77.80;;;;;;5093500;28;20067;-82
2022/05/13 04:18:41;;;;;;;7.20;2.50;;;13.00;77.40;;;;;;5079255;28;20048;-79
2022/05/13 04:21:15;;;;;;;8.35;2.63;;;12.90;77.40;;;;;;5093917;28;20123;-79
2022/05/13 04:23:44;;;;;;;9.95;3.40;;;13.00;77.30;;;;;;5094107;28;20084;-78
2022/05/13 04:26:13;;;;;;;10.60;3.20;;;12.90;77.50;;;;;;5076833;28;20047;-76
2022/05/13 04:28:44;;;;;;;7.75;2.40;;;12.90;77.40;;;;;;5093962;28;20051;-78
2022/05/13 04:31:11;;;;;;;8.93;3.15;;;12.90;77.60;;;;;;5076660;28;20040;-79
2022/05/13 04:33:37;;;;;;;5.43;3.72;;;12.90;78.00;;;;;;5093776;28;20468;-80
2022/05/13 04:36:04;;;;;;;10.43;2.80;;;12.90;78.10;;;;;;5076709;28;20036;-80
2022/05/13 04:38:30;;;;;;;11.52;3.15;;;12.90;78.00;;;;;;5076766;28;20124;-79
2022/05/13 04:40:56;;;;;;;8.40;2.88;;;13.00;77.80;;;;;;5076579;28;20476;-76
2022/05/13 04:43:21;;;;;;;6.32;2.50;;;13.00;77.80;;;;;;5076616;28;20047;-79
2022/05/13 04:45:47;;;;;;;9.75;3.53;;;13.00;77.70;;;;;;5093448;28;20055;-78
2022/05/13 04:48:21;;;;;;;8.43;2.60;;;13.00;77.70;;;;;;5076503;28;20044;-77
2022/05/13 04:50:53;;;;;;;8.23;2.72;;;12.90;77.70;;;;;;5093609;28;20380;-81
2022/05/13 04:53:25;;;;;;;10.73;3.20;;;12.90;78.00;;;;;;5076284;28;20044;-76
2022/05/13 04:55:53;;;;;;;10.05;2.70;;;12.90;77.90;;;;;;5085100;28;20188;-78
2022/05/13 04:58:20;;;;;;;6.63;2.75;;;13.00;77.50;;;;;;5071970;28;20044;-78
2022/05/13 05:00:47;;;;;;;10.68;2.80;;;13.00;77.30;;;;;;5087995;28;21278;-82
2022/05/13 05:03:14;;;;;;;9.18;2.90;;;13.00;77.30;;;;;;5071545;28;20052;-82
2022/05/13 05:05:42;;;;;;;10.95;3.20;;;12.90;77.70;;;;;;5070430;28;20488;-79
2022/05/13 05:08:11;;;;;;;7.07;2.20;;;12.90;78.10;;;;;;5072148;28;20126;-80
2022/05/13 05:10:38;;;;;;;9.38;2.70;;;13.00;78.30;;;;;;5088472;28;20044;-79
2022/05/13 05:13:04;;;;;;;8.70;3.22;;;13.00;78.20;;;;;;5088799;28;20354;-76
2022/05/13 05:15:30;;;;;;;11.15;2.80;;;13.00;78.30;;;;;;5086875;28;20105;-81
2022/05/13 05:17:55;;;;;;;9.75;2.72;;;13.00;78.40;;;;;;5088742;28;20051;-78
2022/05/13 05:20:22;;;;;;;12.48;3.13;;;13.00;78.60;;;;;;5072060;28;20081;-75
2022/05/13 05:22:48;;;;;;;10.23;4.18;;;13.00;78.70;;;;;;5088061;28;20044;-75
2022/05/13 05:25:15;;;;;;;8.32;2.88;;;13.00;78.90;;;;;;5085733;28;20066;-79
2022/05/13 05:27:41;;;;;;;14.40;3.20;;;13.10;78.40;;;;;;5088415;28;20047;-82
2022/05/13 05:30:12;;;;;;;11.63;3.15;;;13.10;78.20;;;;;;5070790;28;20074;-79
2022/05/13 05:32:39;;;;;;;8.50;2.92;;;13.10;78.10;;;;;;5088376;28;20472;-80
2022/05/13 05:35:12;;;;;;;9.88;3.35;;;13.10;78.00;;;;;;5086679;28;20504;-80
2022/05/13 05:37:38;;;;;;;12.93;2.78;;;13.10;78.20;;;;;;5088704;28;20089;-77
2022/05/13 05:40:05;;;;;;;6.85;2.25;;;13.10;77.90;;;;;;5071308;28;20036;-79
2022/05/13 05:42:30;;;;;;;10.20;2.55;;;13.20;76.70;;;;;;5088659;28;20121;-79
2022/05/13 05:44:56;;;;;;;8.93;2.50;;;13.20;76.80;;;;;;5069935;28;20452;-77
2022/05/13 05:47:23;;;;;;;8.13;2.63;;;13.20;76.60;;;;;;5085952;28;20681;-79
2022/05/13 05:49:49;;;;;;;6.80;2.45;;;13.30;76.40;;;;;;5085093;28;20075;-76
2022/05/13 05:52:15;;;;;;;9.55;2.38;;;13.30;76.60;;;;;;5068099;28;20044;-80
2022/05/13 05:57:27;;;;;;;10.43;3.13;;;13.30;76.60;;;;;;5073162;28;20396;-77
2022/05/13 05:59:54;;;;;;;7.68;2.50;;;13.30;76.30;;;;;;5087405;28;20058;-77
2022/05/13 06:02:19;;;;;;;7.30;2.15;;;13.30;76.50;;;;;;5087294;28;20068;-78
2022/05/13 06:04:45;;;;;;;7.50;2.22;;;13.30;76.80;;;;;;5086353;28;20067;-78
2022/05/13 06:07:15;;;;;;;5.07;1.77;;;13.30;76.70;;;;;;5086884;28;20063;-78
2022/05/13 06:09:43;;;;;;;7.88;2.60;;;13.30;76.80;;;;;;5087595;28;20056;-78
2022/05/13 06:12:10;;;;;;;7.93;2.63;;;13.40;75.80;;;;;;5087229;28;20059;-79
2022/05/13 06:14:36;;;;;;;6.82;2.30;;;13.30;76.10;;;;;;5066589;28;20044;-78
2022/05/13 06:17:03;;;;;;;6.55;2.58;;;13.40;75.90;;;;;;5091966;28;20500;-82
2022/05/13 06:19:28;;;;;;;12.40;2.55;;;13.40;75.70;;;;;;5092893;28;20379;-80
2022/05/13 06:21:54;;;;;;;7.20;2.13;;;13.40;76.10;;;;;;5076745;28;20076;-79
2022/05/13 06:24:20;;;;;;;6.82;2.20;;;13.50;75.70;;;;;;5093566;28;20492;-81
2022/05/13 06:26:48;;;;;;;6.05;2.28;;;13.40;75.90;;;;;;5076803;28;20522;-78
2022/05/13 06:29:15;;;;;;;11.88;2.20;;;13.50;75.60;;;;;;5094843;28;20048;-79
2022/05/13 06:31:41;;;;;;;9.15;1.90;;;13.50;75.50;;;;;;5078504;28;20127;-80
2022/05/13 06:34:07;;;;;;;5.82;2.35;;;13.60;75.20;;;;;;5095160;28;20036;-78
2022/05/13 06:36:33;;;;;;;8.95;2.45;;;13.60;75.00;;;;;;5095377;28;20043;-80
2022/05/13 06:39:00;;;;;;;9.18;2.70;;;13.60;74.60;;;;;;5078390;28;20040;-80
2022/05/13 06:41:25;;;;;;;5.32;2.63;;;13.60;74.70;;;;;;5078247;28;20032;-77
2022/05/13 06:43:52;;;;;;;8.85;2.55;;;13.60;75.00;;;;;;5094969;28;20093;-81
2022/05/13 06:46:17;;;;;;;7.22;1.92;;;13.60;75.10;;;;;;5095102;28;20047;-79
2022/05/13 06:48:43;;;;;;;5.80;2.17;;;13.60;75.40;;;;;;5078434;28;20036;-80
2022/05/13 06:51:09;;;;;;;5.43;1.85;;;13.70;75.20;;;;;;5094844;28;20401;-78
2022/05/13 06:53:34;;;;;;;10.25;3.00;;;13.80;74.70;;;;;;5077857;28;20036;-79
2022/05/13 06:56:00;;;;;;;7.47;2.15;;;13.90;74.30;;;;;;5094912;28;20068;-76
2022/05/13 06:58:27;;;;;;;7.47;1.98;;;13.80;74.20;;;;;;5094797;28;20036;-78
2022/05/13 07:00:53;;;;;;;7.70;2.20;;;13.80;73.90;;;;;;5094759;28;20557;-80
2022/05/13 07:03:21;;;;;;;8.25;2.30;;;13.90;74.50;;;;;;5077988;28;20040;-76
2022/05/13 07:05:47;;;;;;;6.55;2.15;;;13.90;74.20;;;;;;5077995;28;20089;-80
2022/05/13 07:08:14;;;;;;;5.65;1.48;;;13.90;74.30;;;;;;5094637;28;20056;-78
2022/05/13 07:10:41;;;;;;;7.60;2.15;;;14.00;73.90;;;;;;5094600;28;20036;-77
2022/05/13 07:13:08;;;;;;;7.55;2.00;;;13.90;74.10;;;;;;5094724;28;20086;-80
2022/05/13 07:15:34;;;;;;;6.30;1.90;;;14.00;74.30;;;;;;5077554;28;20420;-77
2022/05/13 07:18:00;;;;;;;6.10;1.80;;;14.10;73.60;;;;;;5094556;28;20051;-79
2022/05/13 07:20:27;;;;;;;4.43;1.70;;;14.10;73.50;;;;;;5094304;28;20514;-81
2022/05/13 07:22:56;;;;;;;10.63;2.47;;;14.30;73.20;;;;;;5094564;28;20164;-77
2022/05/13 07:25:23;;;;;;;7.55;2.40;;;14.30;72.70;;;;;;5076931;28;20365;-80
2022/05/13 07:27:48;;;;;;;3.83;1.73;;;14.20;72.90;;;;;;5093933;28;20090;-77
2022/05/13 07:30:15;;;;;;;3.13;1.70;;;14.30;73.60;;;;;;5094209;28;20491;-77
2022/05/13 07:32:41;;;;;;;6.85;2.17;;;14.30;73.20;;;;;;5094122;28;20040;-78
2022/05/13 07:35:08;;;;;;;6.28;1.73;;;14.30;72.80;;;;;;5093971;28;20036;-80
2022/05/13 07:37:35;;;;;;;6.57;1.80;;;14.20;73.20;;;;;;5077454;28;20097;-79
2022/05/13 07:42:46;;;;;;;7.05;1.88;;;14.20;73.00;;;;;;5093908;28;20047;-80
2022/05/13 07:45:12;;;;;;;10.25;2.03;;;14.30;73.00;;;;;;5077096;28;20040;-79
2022/05/13 07:47:42;;;;;;;9.93;2.17;;;14.30;72.70;;;;;;5077026;28;20042;-78
2022/05/13 07:50:10;;;;;;;5.05;1.92;;;14.50;73.00;;;;;;5077226;28;20043;-79
2022/05/13 07:52:36;;;;;;;7.35;2.20;;;14.50;73.30;;;;;;5060796;28;20055;-77
2022/05/13 07:55:03;;;;;;;5.45;1.70;;;14.60;73.20;;;;;;5076730;28;20477;-80
2022/05/13 07:57:29;;;;;;;4.38;1.60;;;14.60;72.40;;;;;;5093685;28;20048;-80
2022/05/13 08:02:39;;;;;;;8.60;2.55;;;14.60;72.40;;;;;;5093969;28;20040;-79
2022/05/13 08:05:05;;;;;;;4.93;2.15;;;14.70;72.10;;;;;;5093909;28;20040;-78
2022/05/13 08:07:31;;;;;;;7.50;2.03;;;14.80;72.50;;;;;;5059990;28;20044;-77
2022/05/13 08:09:56;;;;;;;6.28;1.67;;;14.90;71.40;;;;;;5093453;28;20040;-78
2022/05/13 08:12:22;;;;;;;6.55;1.85;;;14.90;71.40;;;;;;5093433;28;20036;-77
2022/05/13 08:14:48;;;;;;;7.75;2.08;;;14.90;71.30;;;;;;5076359;28;20048;-80
2022/05/13 08:17:14;;;;;;;8.15;2.00;;;15.00;71.10;;;;;;5093177;28;20052;-80
2022/05/13 08:19:40;;;;;;;5.40;1.80;;;15.00;70.60;;;;;;5093562;28;20357;-78
2022/05/13 08:22:06;;;;;;;6.80;1.70;;;15.00;71.00;;;;;;5093167;28;20043;-76
2022/05/13 08:24:32;;;;;;;6.07;1.98;;;15.00;70.70;;;;;;5093189;28;20123;-77
2022/05/13 08:26:57;;;;;;;5.60;1.70;;;15.00;70.90;;;;;;5093081;28;20039;-78
2022/05/13 08:29:23;;;;;;;11.30;1.95;;;15.10;70.70;;;;;;5093308;28;20131;-77
2022/05/13 08:31:50;;;;;;;6.35;2.05;;;15.00;70.30;;;;;;5076108;28;20504;-79
2022/05/13 08:34:16;;;;;;;8.93;3.70;;;15.10;70.40;;;;;;5092947;28;20052;-78
2022/05/13 08:36:43;;;;;;;9.50;2.55;;;15.30;70.40;;;;;;5075891;28;20127;-80
2022/05/13 08:39:10;;;;;;;3.80;1.80;;;15.30;69.90;;;;;;5093064;28;20066;-79
2022/05/13 08:42:17;;;;;;;5.15;1.90;;;15.40;69.20;;;;;;5093111;28;20083;-82
2022/05/13 08:44:43;;;;;;;7.97;2.13;;;15.40;68.90;;;;;;5092407;28;20097;-82
2022/05/13 08:47:44;;;;;;;7.22;2.10;;;15.50;69.10;;;;;;5092858;28;20036;-78
2022/05/13 08:50:20;;;;;;;10.82;2.65;;;15.60;69.00;;;;;;5076033;28;20082;-77
2022/05/13 08:53:18;;;;;;;7.75;1.92;;;15.70;68.60;;;;;;5092890;28;20127;-79
2022/05/13 08:55:57;;;;;;;9.90;2.03;;;15.70;67.60;;;;;;5093653;28;20040;-80
2022/05/13 08:58:31;;;;;;;7.53;2.20;;;15.70;68.50;;;;;;5093433;28;20144;-81
2022/05/13 09:01:00;;;;;;;8.27;2.95;;;15.70;68.50;;;;;;5093052;28;20101;-80
2022/05/13 09:03:48;;;;;;;6.20;2.30;;;15.80;68.40;;;;;;5092513;28;20457;-80
2022/05/13 09:06:19;;;;;;;9.23;2.28;;;15.80;68.70;;;;;;5092678;28;20557;-76
2022/05/13 09:08:46;;;;;;;9.88;2.60;;;15.90;69.30;;;;;;5075438;28;20127;-80
2022/05/13 09:11:13;;;;;;;8.40;2.30;;;15.90;69.40;;;;;;5075710;28;20036;-80
2022/05/13 09:14:02;;;;;;;8.48;2.45;;;15.90;68.00;;;;;;5092359;28;20063;-78
2022/05/13 09:16:59;;;;;;;7.70;2.03;;;15.70;68.50;;;;;;5092091;28;20052;-79
2022/05/13 09:19:35;;;;;;;8.13;2.22;;;15.60;68.90;;;;;;5065422;28;20048;-78
2022/05/13 09:22:08;;;;;;;7.55;2.47;;;15.50;69.30;;;;;;5092393;28;20047;-80
2022/05/13 09:24:34;;;;;;;7.43;2.25;;;15.50;69.80;;;;;;5092124;28;20047;-80
2022/05/13 09:27:03;;;;;;;7.97;2.88;;;15.40;69.70;;;;;;5075588;28;20039;-79
2022/05/13 09:29:44;;;;;;;11.40;2.85;;;15.30;70.00;;;;;;5058984;28;20040;-77
2022/05/13 09:32:36;;;;;;;9.35;3.53;;;15.50;70.30;;;;;;5092525;28;20079;-79
2022/05/13 09:35:17;;;;;;;7.30;2.38;;;15.70;70.60;;;;;;5109375;28;20475;-77
2022/05/13 09:37:44;;;;;;;9.13;2.80;;;16.00;69.20;;;;;;5092104;28;20476;-79
2022/05/13 09:40:16;;;;;;;10.57;2.47;;;16.00;68.40;;;;;;5092120;28;20036;-77
2022/05/13 09:42:45;;;;;;;7.10;2.40;;;16.10;67.80;;;;;;5092062;28;20476;-78
2022/05/13 09:45:28;;;;;;;5.90;2.35;;;16.00;67.60;;;;;;5074998;28;20089;-80
2022/05/13 09:48:06;;;;;;;7.47;2.05;;;16.00;67.30;;;;;;5092164;28;20437;-79
2022/05/13 09:50:42;;;;;;;7.63;2.13;;;16.10;67.40;;;;;;5091101;28;20040;-78
2022/05/13 09:53:20;;;;;;;7.05;2.30;;;16.20;66.80;;;;;;5074834;28;20492;-80
2022/05/13 09:55:50;;;;;;;7.30;2.40;;;16.20;66.50;;;;;;5074821;28;20044;-79
2022/05/13 09:58:23;;;;;;;6.75;2.20;;;16.20;66.40;;;;;;5091874;28;20051;-79
2022/05/13 10:00:53;;;;;;;8.63;2.53;;;16.30;66.80;;;;;;5091783;28;20044;-79
2022/05/13 10:03:25;;;;;;;7.10;2.53;;;16.40;65.60;;;;;;5091870;28;20384;-81
2022/05/13 10:06:16;;;;;;;5.28;2.08;;;16.60;66.10;;;;;;5091891;28;20055;-80
2022/05/13 10:08:57;;;;;;;9.50;2.22;;;16.70;65.60;;;;;;5066046;28;20044;-78
2022/05/13 10:14:28;;;;;;;6.25;2.05;;;16.80;65.50;;;;;;5091330;28;20070;-77
2022/05/13 10:17:17;;;;;;;7.07;2.10;;;16.70;65.50;;;;;;5091353;28;20044;-78
2022/05/13 10:19:45;;;;;;;7.57;2.83;;;16.70;64.70;;;;;;5091737;28;20031;-80
2022/05/13 10:22:26;;;;;;;14.00;2.25;;;16.90;65.50;;;;;;5091505;28;20095;-81
2022/05/13 10:25:29;;;;;;;7.50;2.55;;;17.00;63.40;;;;;;5091487;28;20040;-78
2022/05/13 10:28:08;;;;;;;7.65;2.58;;;16.90;64.20;;;;;;5014008;28;20469;-80
2022/05/13 10:30:38;;;;;;;11.10;2.10;;;16.80;64.90;;;;;;5085307;28;20105;-82
2022/05/13 10:33:12;;;;;;;11.23;3.30;;;16.80;64.70;;;;;;5091635;28;20131;-79
2022/05/13 10:35:53;;;;;;;8.35;2.63;;;17.00;65.00;;;;;;5074572;28;20037;-81
2022/05/13 10:38:43;;;;;;;10.80;3.28;;;16.90;65.60;;;;;;5074781;28;20465;-81
2022/05/13 10:41:34;;;;;;;5.93;2.10;;;16.90;65.90;;;;;;5074426;28;20075;-77
2022/05/13 10:44:21;;;;;;;10.93;3.67;;;16.80;64.90;;;;;;5074404;28;20040;-81
2022/05/13 10:46:53;;;;;;;9.63;2.63;;;16.70;65.50;;;;;;5091326;28;20032;-79
2022/05/13 10:49:19;;;;;;;6.63;2.42;;;16.70;66.40;;;;;;5091526;28;20384;-79
2022/05/13 10:52:14;;;;;;;11.40;3.03;;;16.70;66.40;;;;;;5091251;28;20036;-80
2022/05/13 10:54:49;;;;;;;;;;;16.90;66.40;;;;;;5091624;28;20041;-77
2022/05/13 10:57:37;;;;;;;5.32;2.85;;;17.00;66.70;;;;;;5091193;28;19920;-80
2022/05/13 11:00:20;;;;;;;11.60;3.05;;;17.00;64.80;;;;;;5091911;28;20385;-78
2022/05/13 11:02:51;;;;;;;7.63;2.30;;;17.10;65.10;;;;;;5094773;28;20090;-78
2022/05/13 11:05:40;;;;;;;8.82;2.60;;;17.10;63.80;;;;;;5094857;28;20040;-80
2022/05/13 11:08:22;;;;;;;6.22;2.40;;;17.00;63.70;;;;;;5094697;28;20173;-77
2022/05/13 11:11:22;;;;;;;8.80;2.13;;;17.00;63.20;;;;;;5094928;28;20412;-77
2022/05/13 11:14:09;;;;;;;8.75;2.47;;;17.00;63.30;;;;;;5094625;28;20471;-78
2022/05/13 11:16:45;;;;;;;6.50;2.50;;;16.80;64.10;;;;;;5094484;28;20052;-78
2022/05/13 11:19:26;;;;;;;5.75;2.70;;;16.60;63.70;;;;;;5094699;28;20048;-80
2022/05/13 11:22:12;;;;;;;10.10;2.90;;;16.50;65.40;;;;;;5077783;28;20036;-79
2022/05/13 11:28:43;;;;;;;7.35;2.28;;;16.30;67.50;;;;;;5090726;28;20048;-77
2022/05/13 11:31:30;;;;;;;8.18;2.67;;;16.20;66.20;;;;;;5094234;28;20036;-80
2022/05/13 11:34:17;;;;;;;8.20;3.55;;;16.20;67.40;;;;;;5094266;28;20047;-80
2022/05/13 11:36:54;;;;;;;11.68;4.55;;;16.00;67.80;;;;;;5077447;28;20036;-80
2022/05/13 11:39:34;;;;;;;12.90;3.78;;;16.00;68.20;;;;;;5077617;28;20031;-77
2022/05/13 11:42:18;;;;;;;8.40;3.05;;;16.00;69.40;;;;;;5093986;28;20063;-78
2022/05/13 11:45:02;;;;;;;7.20;2.95;;;16.00;69.30;;;;;;5094321;28;20365;-77
2022/05/13 11:47:56;;;;;;;9.40;3.05;;;16.10;69.20;;;;;;5094290;28;20048;-78
2022/05/13 11:50:29;;;;;;;10.85;3.25;;;16.40;68.00;;;;;;5094020;28;20134;-77
2022/05/13 11:52:57;;;;;;;9.63;2.63;;;16.60;66.80;;;;;;5077189;28;20040;-78
2022/05/13 11:55:52;;;;;;;8.43;3.08;;;16.90;66.40;;;;;;5094108;28;20471;-77
2022/05/13 11:58:55;;;;;;;8.32;2.97;;;17.10;65.30;;;;;;5064682;28;20079;-80
2022/05/13 12:01:36;;;;;;;11.25;4.15;;;17.10;63.30;;;;;;5094365;28;20044;-77
2022/05/13 12:04:14;;;;;;;10.98;2.22;;;17.00;63.50;;;;;;5077629;28;20047;-78
2022/05/13 12:06:52;;;;;;;7.15;2.10;;;17.10;62.60;;;;;;5077048;28;20503;-78
2022/05/13 12:09:30;;;;;;;9.57;2.15;;;17.10;61.90;;;;;;5093602;28;20040;-78
2022/05/13 12:12:26;;;;;;;5.65;2.22;;;16.90;62.50;;;;;;5093851;28;20039;-79
2022/05/13 12:15:16;;;;;;;6.97;2.45;;;17.00;62.80;;;;;;5070568;28;20131;-80
2022/05/13 12:17:51;;;;;;;9.23;2.78;;;17.20;61.70;;;;;;5094475;28;20051;-78
2022/05/13 12:20:40;;;;;;;8.05;2.28;;;17.00;61.20;;;;;;5094320;28;20046;-81
2022/05/13 12:23:37;;;;;;;9.18;2.30;;;16.90;62.70;;;;;;5077337;28;20051;-77
2022/05/13 12:26:06;;;;;;;7.97;2.72;;;17.00;60.60;;;;;;5077066;28;20077;-81
2022/05/13 12:28:56;;;;;;;12.32;2.40;;;17.30;60.80;;;;;;5093898;28;20090;-78
2022/05/13 12:31:21;;;;;;;6.25;2.63;;;17.40;59.90;;;;;;5093694;28;20125;-80
2022/05/13 12:39:51;;;;;;;8.52;2.63;;;17.90;59.40;;;;;;5093188;28;20438;-79
2022/05/13 12:42:37;;;;;;;8.48;2.35;;;17.70;58.40;;;;;;5076100;28;20036;-79
2022/05/13 12:45:03;;;;;;;6.88;2.35;;;17.60;58.80;;;;;;5092873;28;20130;-78
2022/05/13 12:47:50;;;;;;;10.70;2.70;;;17.20;59.80;;;;;;5093009;28;20040;-82
2022/05/13 12:50:29;;;;;;;9.50;3.00;;;17.00;60.50;;;;;;5092684;28;20069;-76
2022/05/13 12:52:55;;;;;;;7.22;1.92;;;17.00;62.00;;;;;;5075703;28;20044;-78
2022/05/13 12:55:24;;;;;;;9.10;2.50;;;17.20;61.20;;;;;;5092478;28;20047;-80
2022/05/13 12:58:00;;;;;;;8.80;2.78;;;17.40;60.90;;;;;;5092500;28;20044;-78
2022/05/13 13:00:41;;;;;;;11.25;2.92;;;17.50;59.00;;;;;;5092525;28;20079;-80
2022/05/13 13:03:10;;;;;;;7.95;1.98;;;17.60;59.30;;;;;;5092750;28;20565;-80
2022/05/13 13:05:39;;;;;;;7.75;2.40;;;17.70;57.80;;;;;;5092410;28;20052;-84
2022/05/13 13:08:19;;;;;;;7.75;2.92;;;17.80;58.00;;;;;;5092748;28;20392;-79
2022/05/13 13:10:58;;;;;;;6.63;2.35;;;17.90;58.00;;;;;;5092416;28;20072;-81
2022/05/13 13:13:44;;;;;;;7.30;2.65;;;17.90;57.70;;;;;;5075396;28;20089;-81
2022/05/13 13:16:35;;;;;;;5.15;1.83;;;17.90;58.50;;;;;;5092003;28;20054;-80
2022/05/13 13:19:25;;;;;;;7.55;1.90;;;18.00;56.30;;;;;;5075746;28;20059;-78
2022/05/13 13:21:54;;;;;;;8.13;2.30;;;18.00;56.50;;;;;;5092786;28;20458;-83
2022/05/13 13:24:25;;;;;;;6.68;1.98;;;17.90;56.70;;;;;;5092703;28;20040;-77
2022/05/13 13:26:51;;;;;;;6.85;1.90;;;17.60;57.90;;;;;;5092357;28;20054;-79
2022/05/13 13:29:30;;;;;;;9.85;1.90;;;17.70;57.90;;;;;;5092539;28;20145;-83
2022/05/13 13:31:59;;;;;;;6.45;2.38;;;17.60;56.80;;;;;;5092190;28;20075;-80
2022/05/13 13:34:29;;;;;;;11.55;3.20;;;17.70;57.30;;;;;;5092233;28;20093;-79
2022/05/13 13:36:55;;;;;;;8.95;3.03;;;17.80;58.70;;;;;;5092384;28;20040;-77
2022/05/13 13:39:25;;;;;;;6.82;2.40;;;17.90;58.50;;;;;;5092607;28;20121;-79